Stephanie A Settoon — WDD9594 — position and weather

sailwx.info

Track history (hours):
 
Tides and Currents Weather Stations Pressure Air Temp Water Temp Dewpoint Dewpoint Depression Visibility Wind Speed Wind Dir Waves Ship Positions

Stephanie A Settoon

Owner: Settoon Towing LLC, Houma, LA. More information available from US FCC via Universal Licensing System and Coast Guard Vessel Documentation Center.

Last reported at 2018-Jun-21 20:20 UTC. Time now 2018-Jun-25 00:16 UTC.
Position N 29°34' W 090°30'.

Length 15 m.

Type: Other ship. MMSI: 367313530.

Date/timePositionNaut miles runAvg speedWind from/ knotsBaromVisibWave heightAir tempDewpointWater temp
2018-Jun-21 20:20N 29°34' W 090°30'2 7.2
2018-Jun-21 20:00N 29°34' W 090°33'3 6.9
2018-Jun-21 19:30N 29°35' W 090°37'4 7.0
2018-Jun-21 19:00N 29°36' W 090°40'2 4.1
2018-Jun-21 18:30N 29°35' W 090°43'1 1.2
2018-Jun-21 18:00N 29°35' W 090°43'0 0.0
2018-Jun-21 17:30N 29°35' W 090°43'0 0.0
2018-Jun-21 17:00N 29°35' W 090°43'1 1.0
2018-Jun-21 16:29N 29°34' W 090°43'3 5.8
2018-Jun-21 16:00N 29°33' W 090°46'4 6.7
2018-Jun-21 15:29N 29°32' W 090°50'  
2018-Jun-13 03:33N 29°37' W 090°59'1 5.6
2018-Jun-13 03:26N 29°37' W 090°59'3 5.4
2018-Jun-13 02:50N 29°34' W 090°57'5 5.4
2018-Jun-13 01:54N 29°32' W 090°51'2 5.6
2018-Jun-13 01:30N 29°32' W 090°49'3 5.4
2018-Jun-13 01:00N 29°32' W 090°46'3 5.0
2018-Jun-13 00:30N 29°34' W 090°44'1 2.1
2018-Jun-13 00:00N 29°35' W 090°43'0 0.0
2018-Jun-12 23:30N 29°35' W 090°43'2 4.1
2018-Jun-12 23:00N 29°37' W 090°42'3 5.0
2018-Jun-12 22:30N 29°36' W 090°39'3 5.3
2018-Jun-12 22:00N 29°35' W 090°37'2 3.4
2018-Jun-12 21:30N 29°34' W 090°35'2 5.0
2018-Jun-12 21:00N 29°34' W 090°32'3 5.1
2018-Jun-12 20:30N 29°34' W 090°29'  
Track history (hours):
 
Tides and Currents Weather Stations Pressure Air Temp Water Temp Dewpoint Dewpoint Depression Visibility Wind Speed Wind Dir Waves Ship Positions

Stephanie A Settoon

Owner: Settoon Towing LLC, Houma, LA. More information available from US FCC via Universal Licensing System and Coast Guard Vessel Documentation Center.

Last reported at 2018-Jun-21 20:20 UTC. Time now 2018-Jun-25 00:16 UTC.
Position N 29°34' W 090°30'.

Length 15 m.

Type: Other ship. MMSI: 367313530.

Date/timePositionNaut miles runAvg speedWind from/ knotsBaromVisibWave heightAir tempDewpointWater temp
2018-Jun-21 20:20N 29°34' W 090°30'2 7.2
2018-Jun-21 20:00N 29°34' W 090°33'3 6.9
2018-Jun-21 19:30N 29°35' W 090°37'4 7.0
2018-Jun-21 19:00N 29°36' W 090°40'2 4.1
2018-Jun-21 18:30N 29°35' W 090°43'1 1.2
2018-Jun-21 18:00N 29°35' W 090°43'0 0.0
2018-Jun-21 17:30N 29°35' W 090°43'0 0.0
2018-Jun-21 17:00N 29°35' W 090°43'1 1.0
2018-Jun-21 16:29N 29°34' W 090°43'3 5.8
2018-Jun-21 16:00N 29°33' W 090°46'4 6.7
2018-Jun-21 15:29N 29°32' W 090°50'  
2018-Jun-13 03:33N 29°37' W 090°59'1 5.6
2018-Jun-13 03:26N 29°37' W 090°59'3 5.4
2018-Jun-13 02:50N 29°34' W 090°57'5 5.4
2018-Jun-13 01:54N 29°32' W 090°51'2 5.6
2018-Jun-13 01:30N 29°32' W 090°49'3 5.4
2018-Jun-13 01:00N 29°32' W 090°46'3 5.0
2018-Jun-13 00:30N 29°34' W 090°44'1 2.1
2018-Jun-13 00:00N 29°35' W 090°43'0 0.0
2018-Jun-12 23:30N 29°35' W 090°43'2 4.1
2018-Jun-12 23:00N 29°37' W 090°42'3 5.0
2018-Jun-12 22:30N 29°36' W 090°39'3 5.3
2018-Jun-12 22:00N 29°35' W 090°37'2 3.4
2018-Jun-12 21:30N 29°34' W 090°35'2 5.0
2018-Jun-12 21:00N 29°34' W 090°32'3 5.1
2018-Jun-12 20:30N 29°34' W 090°29'  

Dump ship's entire track history